createdAt,value
2018-03-23T00:00:55.651Z,846.08
2018-03-23T00:01:55.514Z,846.09
2018-03-23T00:02:55.380Z,846.09
2018-03-23T00:03:55.244Z,846.07
2018-03-23T00:04:55.110Z,846.07
2018-03-23T00:05:54.974Z,846.09
2018-03-23T00:06:54.849Z,846.06
2018-03-23T00:07:54.706Z,846.07
2018-03-23T00:08:54.572Z,846.10
2018-03-23T00:09:54.435Z,846.07
2018-03-23T00:10:54.300Z,846.07
2018-03-23T00:11:54.167Z,846.02
2018-03-23T00:12:54.034Z,846.04
2018-03-23T00:13:53.897Z,846.01
2018-03-23T00:14:53.763Z,846.02
2018-03-23T00:15:53.627Z,846.01
2018-03-23T00:16:53.496Z,846.01
2018-03-23T00:17:53.358Z,846.05
2018-03-23T00:18:53.226Z,846.04
2018-03-23T00:19:53.090Z,846.02
2018-03-23T00:20:52.958Z,846.01
2018-03-23T00:21:52.819Z,846.02
2018-03-23T00:22:52.684Z,846.04
2018-03-23T00:23:52.550Z,846.00
2018-03-23T00:24:52.414Z,846.01
2018-03-23T00:25:52.280Z,846.00
2018-03-23T00:26:52.146Z,845.95
2018-03-23T00:27:52.011Z,845.99
2018-03-23T00:28:51.876Z,845.95
2018-03-23T00:29:51.741Z,846.00
2018-03-23T00:30:51.606Z,845.96
2018-03-23T00:31:51.472Z,845.96
2018-03-23T00:32:51.338Z,845.91
2018-03-23T00:33:51.202Z,845.91
2018-03-23T00:34:51.067Z,845.92
2018-03-23T00:35:50.933Z,845.93
2018-03-23T00:36:50.798Z,845.87
2018-03-23T00:37:50.662Z,845.88
2018-03-23T00:38:50.530Z,845.80
2018-03-23T00:39:50.394Z,845.80
2018-03-23T00:40:50.259Z,845.82
2018-03-23T00:41:50.125Z,845.82
2018-03-23T00:42:50.001Z,845.84
2018-03-23T00:43:49.854Z,845.86
2018-03-23T00:44:49.719Z,845.86
2018-03-23T00:45:49.587Z,845.88
2018-03-23T00:46:49.451Z,845.87
2018-03-23T00:47:49.315Z,845.84
2018-03-23T00:48:49.182Z,845.84
2018-03-23T00:49:49.044Z,845.85
2018-03-23T00:50:48.925Z,845.84
2018-03-23T00:51:48.773Z,845.89
2018-03-23T00:52:48.642Z,845.83
2018-03-23T00:53:48.506Z,845.84
2018-03-23T00:54:48.372Z,845.81
2018-03-23T00:55:48.233Z,845.81
2018-03-23T00:56:48.103Z,845.78
2018-03-23T00:57:47.966Z,845.82
2018-03-23T00:58:47.836Z,845.81
2018-03-23T00:59:47.699Z,845.77
2018-03-23T01:00:47.563Z,845.81
2018-03-23T01:01:47.428Z,845.80
2018-03-23T01:02:47.292Z,845.77
2018-03-23T01:03:47.157Z,845.80
2018-03-23T01:04:47.021Z,845.79
2018-03-23T01:05:46.886Z,845.75
2018-03-23T01:06:46.758Z,845.75
2018-03-23T01:07:46.617Z,845.74
2018-03-23T01:08:46.483Z,845.77
2018-03-23T01:09:46.348Z,845.78
2018-03-23T01:10:46.212Z,845.77
2018-03-23T01:11:46.080Z,845.76
2018-03-23T01:12:45.947Z,845.74
2018-03-23T01:13:45.812Z,845.74
2018-03-23T01:14:45.676Z,845.77
2018-03-23T01:15:45.541Z,845.73
2018-03-23T01:16:45.403Z,845.66
2018-03-23T01:17:45.267Z,845.70
2018-03-23T01:18:45.136Z,845.64
2018-03-23T01:19:44.997Z,845.68
2018-03-23T01:20:44.866Z,845.64
2018-03-23T01:21:44.739Z,845.70
2018-03-23T01:22:44.593Z,845.72
2018-03-23T01:23:44.459Z,845.74
2018-03-23T01:24:44.334Z,845.74
2018-03-23T01:25:44.189Z,845.72
2018-03-23T01:26:44.054Z,845.73
2018-03-23T01:27:43.919Z,845.74
2018-03-23T01:28:43.786Z,845.71
2018-03-23T01:29:43.655Z,845.65
2018-03-23T01:30:43.515Z,845.62
2018-03-23T01:31:43.380Z,845.61
2018-03-23T01:32:43.246Z,845.60
2018-03-23T01:33:43.111Z,845.57
2018-03-23T01:34:42.974Z,845.53
2018-03-23T01:35:42.841Z,845.56
2018-03-23T01:36:42.707Z,845.54
2018-03-23T01:37:42.571Z,845.58
2018-03-23T01:38:42.437Z,845.59
2018-03-23T01:39:42.307Z,845.61
2018-03-23T01:40:42.164Z,845.63
2018-03-23T01:41:42.030Z,845.62
2018-03-23T01:42:41.895Z,845.61
2018-03-23T01:43:41.763Z,845.62
2018-03-23T01:44:41.626Z,845.64
2018-03-23T01:45:41.490Z,845.62
2018-03-23T01:46:41.358Z,845.61
2018-03-23T01:47:41.223Z,845.62
2018-03-23T01:48:41.085Z,845.63
2018-03-23T01:49:40.950Z,845.65
2018-03-23T01:50:40.814Z,845.65
2018-03-23T01:51:40.682Z,845.63
2018-03-23T01:52:40.553Z,845.64
2018-03-23T01:53:40.409Z,845.62
2018-03-23T01:54:40.276Z,845.62
2018-03-23T01:55:40.146Z,845.60
2018-03-23T01:56:40.008Z,845.58
2018-03-23T01:57:39.907Z,845.54
2018-03-23T01:58:39.738Z,845.55
2018-03-23T01:59:39.605Z,845.54
2018-03-23T02:00:39.469Z,845.56
2018-03-23T02:01:39.333Z,845.56
2018-03-23T02:02:39.196Z,845.58
2018-03-23T02:03:39.065Z,845.59
2018-03-23T02:04:38.928Z,845.58
2018-03-23T02:05:38.794Z,845.58
2018-03-23T02:06:38.659Z,845.59
2018-03-23T02:07:38.526Z,845.59
2018-03-23T02:08:38.389Z,845.51
2018-03-23T02:09:38.253Z,845.44
2018-03-23T02:10:38.119Z,845.40
2018-03-23T02:11:37.984Z,845.39
2018-03-23T02:12:37.850Z,845.42
2018-03-23T02:13:37.716Z,845.39
2018-03-23T02:14:37.583Z,845.42
2018-03-23T02:15:37.448Z,845.40
2018-03-23T02:16:37.312Z,845.40
2018-03-23T02:17:37.177Z,845.37
2018-03-23T02:18:37.044Z,845.33
2018-03-23T02:19:36.909Z,845.29
2018-03-23T02:20:36.775Z,845.23
2018-03-23T02:21:36.651Z,845.25
2018-03-23T02:22:36.506Z,845.19
2018-03-23T02:23:36.370Z,845.17
2018-03-23T02:24:36.235Z,845.15
2018-03-23T02:25:36.100Z,845.16
2018-03-23T02:26:35.968Z,845.20
2018-03-23T02:27:35.834Z,845.24
2018-03-23T02:28:35.700Z,845.20
2018-03-23T02:29:35.568Z,845.14
2018-03-23T02:30:35.432Z,845.13
2018-03-23T02:31:35.298Z,845.10
2018-03-23T02:32:35.163Z,845.04
2018-03-23T02:33:35.029Z,845.07
2018-03-23T02:34:34.892Z,845.06
2018-03-23T02:35:34.758Z,845.09
2018-03-23T02:36:34.622Z,845.15
2018-03-23T02:37:34.487Z,845.15
2018-03-23T02:38:34.354Z,845.15
2018-03-23T02:39:34.222Z,845.12
2018-03-23T02:40:34.087Z,845.14
2018-03-23T02:41:33.951Z,845.17
2018-03-23T02:42:33.818Z,845.19
2018-03-23T02:43:33.681Z,845.14
2018-03-23T02:44:33.545Z,845.20
2018-03-23T02:45:33.411Z,845.14
2018-03-23T02:46:33.273Z,845.16
2018-03-23T02:47:33.144Z,845.16
2018-03-23T02:48:33.007Z,845.09
2018-03-23T02:49:32.873Z,845.11
2018-03-23T02:50:32.737Z,845.13
2018-03-23T02:51:32.601Z,845.12
2018-03-23T02:52:32.470Z,845.11
2018-03-23T02:53:32.340Z,845.07
2018-03-23T02:54:32.211Z,845.00
2018-03-23T02:55:32.062Z,845.00
2018-03-23T02:56:31.929Z,844.97
2018-03-23T02:57:31.792Z,844.97
2018-03-23T02:58:31.658Z,845.01
2018-03-23T02:59:31.525Z,844.98
2018-03-23T03:00:31.389Z,844.91
2018-03-23T03:01:31.255Z,844.91
2018-03-23T03:02:31.121Z,844.85
2018-03-23T03:03:30.992Z,844.84
2018-03-23T03:04:30.850Z,844.85
2018-03-23T03:05:30.712Z,844.81
2018-03-23T03:06:30.578Z,844.84
2018-03-23T03:07:30.453Z,844.89
2018-03-23T03:08:30.310Z,844.87
2018-03-23T03:09:30.174Z,844.89
2018-03-23T03:10:30.038Z,844.90
2018-03-23T03:11:29.906Z,844.90
2018-03-23T03:12:29.769Z,844.95
2018-03-23T03:13:29.632Z,844.93
2018-03-23T03:14:29.497Z,844.94
2018-03-23T03:15:29.365Z,844.98
2018-03-23T03:16:29.232Z,844.94
2018-03-23T03:17:29.091Z,844.91
2018-03-23T03:18:28.959Z,844.92
2018-03-23T03:19:28.822Z,844.92
2018-03-23T03:20:28.691Z,844.93
2018-03-23T03:21:28.554Z,844.95
2018-03-23T03:22:28.422Z,844.91
2018-03-23T03:23:28.284Z,844.90
2018-03-23T03:24:28.152Z,844.90
2018-03-23T03:25:28.018Z,844.88
2018-03-23T03:26:27.880Z,844.83
2018-03-23T03:27:27.743Z,844.86
2018-03-23T03:28:27.611Z,844.85
2018-03-23T03:29:27.474Z,844.84
2018-03-23T03:30:27.341Z,844.89
2018-03-23T03:31:27.206Z,844.93
2018-03-23T03:32:27.071Z,844.86
2018-03-23T03:33:26.934Z,844.92
2018-03-23T03:34:26.803Z,844.85
2018-03-23T03:35:26.674Z,844.83
2018-03-23T03:36:26.530Z,844.84
2018-03-23T03:37:26.396Z,844.87
2018-03-23T03:38:26.263Z,844.83
2018-03-23T03:39:26.128Z,844.81
2018-03-23T03:40:25.995Z,844.84
2018-03-23T03:41:25.861Z,844.86
2018-03-23T03:42:25.725Z,844.86
2018-03-23T03:43:25.590Z,844.85
2018-03-23T03:44:25.457Z,844.86
2018-03-23T03:45:25.321Z,844.88
2018-03-23T03:46:25.184Z,844.90
2018-03-23T03:47:25.050Z,844.91
2018-03-23T03:48:24.923Z,844.87
2018-03-23T03:49:24.779Z,844.85
2018-03-23T03:50:24.644Z,844.87
2018-03-23T03:51:24.514Z,844.89
2018-03-23T03:52:24.376Z,844.89
2018-03-23T03:53:24.241Z,844.92
2018-03-23T03:54:24.107Z,844.90
2018-03-23T03:55:23.969Z,844.91
2018-03-23T03:56:23.836Z,844.92
2018-03-23T03:57:23.702Z,844.92
2018-03-23T03:58:23.566Z,844.91
2018-03-23T03:59:23.432Z,844.94
2018-03-23T04:00:23.297Z,844.90
2018-03-23T04:01:23.164Z,844.87
2018-03-23T04:02:23.028Z,844.86
2018-03-23T04:03:22.899Z,844.86
2018-03-23T04:04:22.771Z,844.86
2018-03-23T04:05:22.623Z,844.87
2018-03-23T04:06:22.490Z,844.88
2018-03-23T04:07:22.353Z,844.87
2018-03-23T04:08:22.219Z,844.83
2018-03-23T04:09:22.087Z,844.82
2018-03-23T04:10:21.950Z,844.83
2018-03-23T04:11:21.815Z,844.85
2018-03-23T04:12:21.682Z,844.80
2018-03-23T04:13:21.544Z,844.75
2018-03-23T04:14:21.411Z,844.78
2018-03-23T04:15:21.276Z,844.78
2018-03-23T04:16:21.141Z,844.80
2018-03-23T04:17:21.008Z,844.77
2018-03-23T04:18:20.873Z,844.77
2018-03-23T04:19:20.736Z,844.76
2018-03-23T04:20:20.603Z,844.74
2018-03-23T04:21:20.465Z,844.78
2018-03-23T04:22:20.336Z,844.74
2018-03-23T04:23:20.200Z,844.74
2018-03-23T04:24:20.065Z,844.73
2018-03-23T04:25:19.930Z,844.75
2018-03-23T04:26:19.800Z,844.72
2018-03-23T04:27:19.661Z,844.74
2018-03-23T04:28:19.542Z,844.75
2018-03-23T04:29:19.391Z,844.74
2018-03-23T04:30:19.258Z,844.77
2018-03-23T04:31:19.126Z,844.76
2018-03-23T04:32:18.988Z,844.75
2018-03-23T04:33:18.853Z,844.70
2018-03-23T04:34:18.723Z,844.68
2018-03-23T04:35:18.584Z,844.70
2018-03-23T04:36:18.450Z,844.70
2018-03-23T04:37:18.317Z,844.69
2018-03-23T04:38:18.183Z,844.68
2018-03-23T04:39:18.045Z,844.72
2018-03-23T04:40:17.928Z,844.72
2018-03-23T04:41:17.776Z,844.75
2018-03-23T04:42:17.642Z,844.76
2018-03-23T04:43:17.508Z,844.78
2018-03-23T04:44:17.375Z,844.73
2018-03-23T04:45:17.237Z,844.75
2018-03-23T04:46:17.101Z,844.76
2018-03-23T04:47:16.968Z,844.74
2018-03-23T04:48:16.835Z,844.72
2018-03-23T04:49:16.700Z,844.72
2018-03-23T04:50:16.567Z,844.72
2018-03-23T04:51:16.430Z,844.70
2018-03-23T04:52:16.296Z,844.73
2018-03-23T04:53:16.161Z,844.75
2018-03-23T04:54:16.027Z,844.71
2018-03-23T04:55:15.890Z,844.72
2018-03-23T04:56:15.756Z,844.71
2018-03-23T04:57:15.621Z,844.69
2018-03-23T04:58:15.498Z,844.66
2018-03-23T04:59:15.412Z,844.65
2018-03-23T05:00:15.220Z,844.61
2018-03-23T05:01:15.092Z,844.63
2018-03-23T05:02:14.948Z,844.64
2018-03-23T05:03:14.810Z,844.67
2018-03-23T05:04:14.681Z,844.64
2018-03-23T05:05:14.547Z,844.68
2018-03-23T05:06:14.410Z,844.64
2018-03-23T05:07:14.275Z,844.67
2018-03-23T05:08:14.138Z,844.67
2018-03-23T05:09:14.011Z,844.61
2018-03-23T05:10:13.868Z,844.63
2018-03-23T05:11:13.735Z,844.62
2018-03-23T05:12:13.598Z,844.61
2018-03-23T05:13:13.465Z,844.59
2018-03-23T05:14:13.333Z,844.62
2018-03-23T05:15:13.198Z,844.67
2018-03-23T05:16:13.140Z,844.65
2018-03-23T05:17:12.927Z,844.64
2018-03-23T05:18:12.791Z,844.67
2018-03-23T05:19:12.662Z,844.65
2018-03-23T05:20:12.531Z,844.65
2018-03-23T05:21:12.391Z,844.65
2018-03-23T05:22:12.253Z,844.66
2018-03-23T05:23:12.118Z,844.62
2018-03-23T05:24:11.985Z,844.62
2018-03-23T05:25:11.852Z,844.57
2018-03-23T05:26:11.719Z,844.61
2018-03-23T05:27:11.583Z,844.66
2018-03-23T05:28:11.452Z,844.67
2018-03-23T05:29:11.315Z,844.68
2018-03-23T05:30:11.183Z,844.70
2018-03-23T05:31:11.068Z,844.71
2018-03-23T05:32:10.928Z,844.74
2018-03-23T05:33:10.777Z,844.74
2018-03-23T05:34:10.643Z,844.75
2018-03-23T05:35:10.509Z,844.72
2018-03-23T05:36:10.376Z,844.75
2018-03-23T05:37:10.241Z,844.74
2018-03-23T05:38:10.109Z,844.76
2018-03-23T05:39:09.975Z,844.77
2018-03-23T05:40:09.839Z,844.80
2018-03-23T05:41:09.703Z,844.78
2018-03-23T05:42:09.570Z,844.76
2018-03-23T05:43:09.436Z,844.74
2018-03-23T05:44:09.302Z,844.72
2018-03-23T05:45:09.168Z,844.77
2018-03-23T05:46:09.060Z,844.78
2018-03-23T05:47:08.904Z,844.75
2018-03-23T05:48:08.765Z,844.78
2018-03-23T05:49:08.631Z,844.74
2018-03-23T05:50:08.507Z,844.75
2018-03-23T05:51:08.362Z,844.74
2018-03-23T05:52:08.231Z,844.76
2018-03-23T05:53:08.096Z,844.80
2018-03-23T05:54:07.959Z,844.78
2018-03-23T05:55:07.832Z,844.78
2018-03-23T05:56:07.693Z,844.79
2018-03-23T05:57:07.556Z,844.78
2018-03-23T05:58:07.422Z,844.77
2018-03-23T05:59:07.288Z,844.73
2018-03-23T06:00:07.152Z,844.72
2018-03-23T06:01:07.020Z,844.73
2018-03-23T06:02:06.885Z,844.74
2018-03-23T06:03:06.752Z,844.71
2018-03-23T06:04:06.617Z,844.72
2018-03-23T06:05:06.483Z,844.76
2018-03-23T06:06:06.349Z,844.77
2018-03-23T06:07:06.214Z,844.76
2018-03-23T06:08:06.083Z,844.72
2018-03-23T06:09:05.947Z,844.68
2018-03-23T06:10:05.812Z,844.69
2018-03-23T06:11:05.679Z,844.71
2018-03-23T06:12:05.543Z,844.73
2018-03-23T06:13:05.410Z,844.75
2018-03-23T06:14:05.275Z,844.70
2018-03-23T06:15:05.139Z,844.72
2018-03-23T06:16:05.008Z,844.72
2018-03-23T06:17:04.873Z,844.69
2018-03-23T06:18:04.739Z,844.67
2018-03-23T06:19:04.606Z,844.67
2018-03-23T06:20:04.474Z,844.68
2018-03-23T06:21:04.337Z,844.62
2018-03-23T06:22:04.203Z,844.66
2018-03-23T06:23:04.069Z,844.64
2018-03-23T06:24:03.936Z,844.67
2018-03-23T06:25:03.802Z,844.65
2018-03-23T06:26:03.667Z,844.64
2018-03-23T06:27:03.545Z,844.59
2018-03-23T06:28:03.452Z,844.60
2018-03-23T06:29:03.265Z,844.61
2018-03-23T06:30:03.130Z,844.61
2018-03-23T06:31:02.997Z,844.65
2018-03-23T06:32:02.867Z,844.65
2018-03-23T06:33:02.737Z,844.65
2018-03-23T06:34:02.594Z,844.67
2018-03-23T06:35:02.463Z,844.69
2018-03-23T06:36:02.335Z,844.70
2018-03-23T06:37:02.198Z,844.70
2018-03-23T06:38:02.064Z,844.69
2018-03-23T06:39:01.943Z,844.71
2018-03-23T06:40:01.802Z,844.67
2018-03-23T06:41:01.659Z,844.69
2018-03-23T06:42:01.524Z,844.67
2018-03-23T06:43:01.390Z,844.68
2018-03-23T06:44:01.257Z,844.68
2018-03-23T06:45:01.123Z,844.67
2018-03-23T06:46:00.988Z,844.63
2018-03-23T06:47:00.852Z,844.64
2018-03-23T06:48:00.724Z,844.64
2018-03-23T06:49:00.585Z,844.67
2018-03-23T06:50:00.449Z,844.67
2018-03-23T06:51:00.316Z,844.66
2018-03-23T06:52:00.186Z,844.68
2018-03-23T06:53:00.050Z,844.69
2018-03-23T06:53:59.913Z,844.70
2018-03-23T06:54:59.780Z,844.69
2018-03-23T06:55:59.648Z,844.70
2018-03-23T06:56:59.512Z,844.69
2018-03-23T06:57:59.381Z,844.72
2018-03-23T06:58:59.246Z,844.70
2018-03-23T06:59:59.111Z,844.73
2018-03-23T07:00:58.977Z,844.68
2018-03-23T07:01:58.847Z,844.67
2018-03-23T07:02:58.710Z,844.68
2018-03-23T07:03:58.582Z,844.71
2018-03-23T07:04:58.441Z,844.72
2018-03-23T07:05:58.309Z,844.73
2018-03-23T07:06:58.174Z,844.70
2018-03-23T07:07:58.041Z,844.72
2018-03-23T07:08:57.912Z,844.69
2018-03-23T07:09:57.771Z,844.71
2018-03-23T07:10:57.645Z,844.68
2018-03-23T07:11:57.510Z,844.73
2018-03-23T07:12:57.371Z,844.72
2018-03-23T07:13:57.236Z,844.70
2018-03-23T07:14:57.104Z,844.74
2018-03-23T07:15:56.974Z,844.77
2018-03-23T07:16:56.840Z,844.78
2018-03-23T07:17:56.703Z,844.78
2018-03-23T07:18:56.565Z,844.75
2018-03-23T07:19:56.433Z,844.77
2018-03-23T07:20:56.300Z,844.77
2018-03-23T07:21:56.199Z,844.75
2018-03-23T07:22:56.037Z,844.74
2018-03-23T07:23:55.900Z,844.76
2018-03-23T07:24:55.770Z,844.73
2018-03-23T07:25:55.632Z,844.69
2018-03-23T07:26:55.499Z,844.72
2018-03-23T07:27:55.364Z,844.69
2018-03-23T07:28:55.229Z,844.69
2018-03-23T07:29:55.097Z,844.69
2018-03-23T07:30:54.962Z,844.70
2018-03-23T07:31:54.830Z,844.70
2018-03-23T07:32:54.721Z,844.68
2018-03-23T07:33:54.564Z,844.71
2018-03-23T07:34:54.427Z,844.74
2018-03-23T07:35:54.297Z,844.72
2018-03-23T07:36:54.162Z,844.74
2018-03-23T07:37:54.028Z,844.75
2018-03-23T07:38:53.899Z,844.75
2018-03-23T07:39:53.765Z,844.77
2018-03-23T07:40:53.637Z,844.75
2018-03-23T07:41:53.496Z,844.78
2018-03-23T07:42:53.366Z,844.76
2018-03-23T07:43:53.232Z,844.75
2018-03-23T07:44:53.096Z,844.73
2018-03-23T07:45:52.963Z,844.72
2018-03-23T07:46:52.834Z,844.76
2018-03-23T07:47:52.701Z,844.74
2018-03-23T07:48:52.566Z,844.72
2018-03-23T07:49:52.433Z,844.71
2018-03-23T07:50:52.302Z,844.72
2018-03-23T07:51:52.222Z,844.70
2018-03-23T07:52:52.032Z,844.75
2018-03-23T07:53:51.898Z,844.74
2018-03-23T07:54:51.766Z,844.74
2018-03-23T07:55:51.634Z,844.69
2018-03-23T07:56:51.500Z,844.69
2018-03-23T07:57:51.372Z,844.74
2018-03-23T07:58:51.232Z,844.72
2018-03-23T07:59:51.103Z,844.75
2018-03-23T08:00:50.963Z,844.73
2018-03-23T08:01:50.832Z,844.75
2018-03-23T08:02:50.703Z,844.71
2018-03-23T08:03:50.566Z,844.75
2018-03-23T08:04:50.430Z,844.70
2018-03-23T08:05:50.300Z,844.71
2018-03-23T08:06:50.207Z,844.73
2018-03-23T08:07:50.034Z,844.70
2018-03-23T08:08:49.898Z,844.73
2018-03-23T08:09:49.784Z,844.71
2018-03-23T08:10:49.632Z,844.75
2018-03-23T08:11:49.498Z,844.76
2018-03-23T08:12:49.365Z,844.75
2018-03-23T08:13:49.230Z,844.74
2018-03-23T08:14:49.095Z,844.72
2018-03-23T08:15:48.964Z,844.75
2018-03-23T08:16:48.832Z,844.75
2018-03-23T08:17:48.698Z,844.73
2018-03-23T08:18:48.562Z,844.72
2018-03-23T08:19:48.431Z,844.70
2018-03-23T08:20:48.299Z,844.69
2018-03-23T08:21:48.163Z,844.69
2018-03-23T08:22:48.031Z,844.72
2018-03-23T08:23:47.897Z,844.74
2018-03-23T08:24:47.767Z,844.76
2018-03-23T08:25:47.630Z,844.74
2018-03-23T08:26:47.501Z,844.75
2018-03-23T08:27:47.370Z,844.74
2018-03-23T08:28:47.238Z,844.74
2018-03-23T08:29:47.099Z,844.70
2018-03-23T08:30:46.966Z,844.75
2018-03-23T08:31:46.833Z,844.77
2018-03-23T08:32:46.698Z,844.78
2018-03-23T08:33:46.565Z,844.78
2018-03-23T08:34:46.437Z,844.75
2018-03-23T08:35:46.308Z,844.71
2018-03-23T08:36:46.167Z,844.72
2018-03-23T08:37:46.043Z,844.69
2018-03-23T08:38:45.898Z,844.70
2018-03-23T08:39:45.768Z,844.69
2018-03-23T08:40:45.637Z,844.65
2018-03-23T08:41:45.556Z,844.65
2018-03-23T08:42:45.372Z,844.62
2018-03-23T08:43:45.237Z,844.67
2018-03-23T08:44:45.232Z,844.67
2018-03-23T08:45:44.978Z,844.68
2018-03-23T08:46:44.837Z,844.68
2018-03-23T08:47:44.708Z,844.68
2018-03-23T08:48:44.572Z,844.64
2018-03-23T08:49:44.440Z,844.67
2018-03-23T08:50:44.309Z,844.62
2018-03-23T08:51:44.173Z,844.62
2018-03-23T08:52:44.083Z,844.58
2018-03-23T08:53:43.912Z,844.60
2018-03-23T08:54:43.780Z,844.59
2018-03-23T08:55:43.649Z,844.55
2018-03-23T08:56:43.515Z,844.58
2018-03-23T08:57:43.382Z,844.55
2018-03-23T08:58:43.260Z,844.52
2018-03-23T08:59:43.120Z,844.51
2018-03-23T09:00:42.988Z,844.55
2018-03-23T09:01:42.859Z,844.54
2018-03-23T09:02:42.724Z,844.53
2018-03-23T09:03:42.594Z,844.50
2018-03-23T09:04:42.477Z,844.48
2018-03-23T09:05:42.331Z,844.50
2018-03-23T09:06:42.200Z,844.48
2018-03-23T09:07:42.071Z,844.48
2018-03-23T09:08:41.937Z,844.46
2018-03-23T09:09:41.836Z,844.45
2018-03-23T09:10:41.679Z,844.41
2018-03-23T09:11:41.546Z,844.41
2018-03-23T09:12:41.416Z,844.42
2018-03-23T09:13:41.288Z,844.46
2018-03-23T09:14:41.156Z,844.46
2018-03-23T09:15:41.025Z,844.36
2018-03-23T09:16:40.922Z,844.40
2018-03-23T09:17:40.767Z,844.36
2018-03-23T09:18:40.635Z,844.37
2018-03-23T09:19:40.510Z,844.37
2018-03-23T09:20:40.374Z,844.38
2018-03-23T09:21:40.252Z,844.41
2018-03-23T09:22:40.118Z,844.37
2018-03-23T09:23:39.988Z,844.39
2018-03-23T09:24:39.858Z,844.41
2018-03-23T09:25:39.725Z,844.39
2018-03-23T09:26:39.605Z,844.39
2018-03-23T09:27:39.469Z,844.36
2018-03-23T09:28:39.340Z,844.35
2018-03-23T09:29:39.215Z,844.34
2018-03-23T09:30:39.078Z,844.34
2018-03-23T09:31:38.950Z,844.35
2018-03-23T09:32:38.820Z,844.36
2018-03-23T09:33:38.688Z,844.35
2018-03-23T09:34:38.557Z,844.36
2018-03-23T09:35:38.429Z,844.36
2018-03-23T09:36:38.298Z,844.33
2018-03-23T09:37:38.170Z,844.36
2018-03-23T09:38:38.038Z,844.37
2018-03-23T09:39:37.907Z,844.36
2018-03-23T09:40:37.779Z,844.32
2018-03-23T09:41:37.648Z,844.37
2018-03-23T09:42:37.522Z,844.35
2018-03-23T09:43:37.387Z,844.33
2018-03-23T09:44:37.292Z,844.32
2018-03-23T09:45:37.128Z,844.31
2018-03-23T09:46:36.998Z,844.30
2018-03-23T09:47:36.868Z,844.28
2018-03-23T09:48:36.795Z,844.25
2018-03-23T09:49:36.607Z,844.24
2018-03-23T09:50:36.481Z,844.23
2018-03-23T09:51:36.347Z,844.20
2018-03-23T09:52:36.273Z,844.22
2018-03-23T09:53:36.089Z,844.21
2018-03-23T09:54:35.964Z,844.21
2018-03-23T09:55:35.833Z,844.19
2018-03-23T09:56:35.705Z,844.17
2018-03-23T09:57:35.571Z,844.16
2018-03-23T09:58:35.442Z,844.16
2018-03-23T09:59:35.309Z,844.15
2018-03-23T10:00:35.178Z,844.16
2018-03-23T10:01:35.051Z,844.11
2018-03-23T10:02:34.953Z,844.12
2018-03-23T10:03:34.790Z,844.08
2018-03-23T10:04:34.658Z,844.06
2018-03-23T10:05:34.529Z,844.05
2018-03-23T10:06:34.399Z,843.99
2018-03-23T10:07:34.274Z,844.00
2018-03-23T10:08:34.136Z,844.02
2018-03-23T10:09:34.007Z,844.00
2018-03-23T10:10:33.878Z,844.01
2018-03-23T10:11:33.746Z,844.01
2018-03-23T10:12:33.615Z,843.99
2018-03-23T10:13:33.484Z,844.00
2018-03-23T10:14:33.355Z,844.02
2018-03-23T10:15:33.226Z,843.94
2018-03-23T10:16:33.097Z,843.95
2018-03-23T10:17:32.964Z,843.92
2018-03-23T10:18:32.833Z,843.90
2018-03-23T10:19:32.703Z,843.93
2018-03-23T10:20:32.583Z,843.88
2018-03-23T10:21:32.441Z,843.90
2018-03-23T10:22:32.311Z,843.84
2018-03-23T10:23:32.189Z,843.83
2018-03-23T10:24:32.050Z,843.86
2018-03-23T10:25:31.919Z,843.82
2018-03-23T10:26:31.794Z,843.82
2018-03-23T10:27:31.658Z,843.81
2018-03-23T10:28:31.525Z,843.80
2018-03-23T10:29:31.398Z,843.84
2018-03-23T10:30:31.266Z,843.84
2018-03-23T10:31:31.142Z,843.84
2018-03-23T10:32:31.003Z,843.81
2018-03-23T10:33:30.886Z,843.85
2018-03-23T10:34:30.746Z,843.84
2018-03-23T10:35:30.659Z,843.86
2018-03-23T10:36:30.482Z,843.82
2018-03-23T10:37:30.354Z,843.85
2018-03-23T10:38:30.228Z,843.83
2018-03-23T10:39:30.094Z,843.80
2018-03-23T10:40:29.962Z,843.80
2018-03-23T10:41:29.837Z,843.78
2018-03-23T10:42:29.704Z,843.76
2018-03-23T10:43:29.572Z,843.75
2018-03-23T10:44:29.442Z,843.71
2018-03-23T10:45:29.310Z,843.73
2018-03-23T10:46:29.182Z,843.71
2018-03-23T10:47:29.054Z,843.69
2018-03-23T10:48:28.927Z,843.70
2018-03-23T10:49:28.792Z,843.71
2018-03-23T10:50:28.663Z,843.67
2018-03-23T10:51:28.532Z,843.67
2018-03-23T10:52:28.404Z,843.67
2018-03-23T10:53:28.332Z,843.63
2018-03-23T10:54:28.142Z,843.66
2018-03-23T10:55:28.013Z,843.62
2018-03-23T10:56:27.884Z,843.58
2018-03-23T10:57:27.764Z,843.59
2018-03-23T10:58:27.627Z,843.57
2018-03-23T10:59:27.497Z,843.58
2018-03-23T11:00:27.373Z,843.58
2018-03-23T11:01:27.240Z,843.54
2018-03-23T11:02:27.106Z,843.53
2018-03-23T11:03:26.990Z,843.49
2018-03-23T11:04:26.848Z,843.50
2018-03-23T11:05:26.720Z,843.52
2018-03-23T11:06:26.591Z,843.48
2018-03-23T11:07:26.460Z,843.50
2018-03-23T11:08:26.332Z,843.47
2018-03-23T11:09:26.202Z,843.48
2018-03-23T11:10:26.074Z,843.45
2018-03-23T11:11:25.950Z,843.43
2018-03-23T11:12:25.817Z,843.41
2018-03-23T11:13:25.689Z,843.41
2018-03-23T11:14:25.557Z,843.44
2018-03-23T11:15:25.428Z,843.40
2018-03-23T11:16:25.294Z,843.40
2018-03-23T11:17:25.167Z,843.40
2018-03-23T11:18:25.048Z,843.42
2018-03-23T11:19:24.906Z,843.44
2018-03-23T11:20:24.778Z,843.41
2018-03-23T11:21:24.652Z,843.36
2018-03-23T11:22:24.528Z,843.34
2018-03-23T11:23:24.390Z,843.37
2018-03-23T11:24:24.300Z,843.33
2018-03-23T11:25:24.130Z,843.29
2018-03-23T11:26:24.005Z,843.32
2018-03-23T11:27:23.873Z,843.32
2018-03-23T11:28:23.746Z,843.30
2018-03-23T11:29:23.615Z,843.25
2018-03-23T11:30:23.486Z,843.28
2018-03-23T11:31:23.358Z,843.21
2018-03-23T11:32:23.229Z,843.24
2018-03-23T11:33:23.100Z,843.26
2018-03-23T11:34:22.969Z,843.21
2018-03-23T11:35:22.842Z,843.23
2018-03-23T11:36:22.712Z,843.19
2018-03-23T11:37:22.584Z,843.20
2018-03-23T11:38:22.454Z,843.18
2018-03-23T11:39:22.326Z,843.18
2018-03-23T11:40:22.196Z,843.16
2018-03-23T11:41:22.070Z,843.09
2018-03-23T11:42:21.940Z,843.12
2018-03-23T11:43:21.814Z,843.09
2018-03-23T11:44:21.725Z,843.09
2018-03-23T11:45:21.557Z,843.05
2018-03-23T11:46:21.453Z,843.09
2018-03-23T11:47:21.302Z,843.07
2018-03-23T11:48:21.168Z,843.03
2018-03-23T11:49:21.041Z,842.99
2018-03-23T11:50:20.914Z,843.00
2018-03-23T11:51:20.786Z,842.96
2018-03-23T11:52:20.660Z,842.91
2018-03-23T11:53:20.530Z,842.92
2018-03-23T11:54:20.402Z,842.91
2018-03-23T11:55:20.273Z,842.90
2018-03-23T11:56:20.146Z,842.86
2018-03-23T11:57:20.180Z,842.85
2018-03-23T11:58:19.891Z,842.85
2018-03-23T11:59:19.759Z,842.85
2018-03-23T12:00:19.632Z,842.82
2018-03-23T12:01:19.505Z,842.81
2018-03-23T12:02:19.378Z,842.83
2018-03-23T12:03:19.248Z,842.78
2018-03-23T12:04:19.120Z,842.75
2018-03-23T12:05:18.990Z,842.74
2018-03-23T12:06:18.864Z,842.76
2018-03-23T12:07:18.736Z,842.76
2018-03-23T12:08:18.610Z,842.69
2018-03-23T12:09:18.480Z,842.71
2018-03-23T12:10:18.353Z,842.72
2018-03-23T12:11:18.226Z,842.67
2018-03-23T12:12:18.100Z,842.65
2018-03-23T12:13:17.975Z,842.59
2018-03-23T12:14:17.914Z,842.62
2018-03-23T12:15:17.720Z,842.59
2018-03-23T12:16:17.589Z,842.60
2018-03-23T12:17:17.464Z,842.55
2018-03-23T12:18:17.335Z,842.58
2018-03-23T12:19:17.210Z,842.57
2018-03-23T12:20:17.083Z,842.55
2018-03-23T12:21:16.961Z,842.52
2018-03-23T12:22:16.828Z,842.50
2018-03-23T12:23:16.701Z,842.52
2018-03-23T12:24:16.577Z,842.51
2018-03-23T12:25:16.448Z,842.51
2018-03-23T12:26:16.320Z,842.49
2018-03-23T12:27:16.195Z,842.51